sensor_id;sensor_type;location;lat;lon;timestamp;pressure;altitude;pressure_sealevel;temperature;humidity
30338;BME280;17143;51.888;5.408;2023-05-17T00:11:21;102324.94;;;10.12;100.00
30338;BME280;17143;51.888;5.408;2023-05-17T00:26:24;102323.94;;;10.00;100.00
30338;BME280;17143;51.888;5.408;2023-05-17T00:41:26;102325.69;;;9.90;100.00
30338;BME280;17143;51.888;5.408;2023-05-17T00:56:28;102334.81;;;9.74;100.00
30338;BME280;17143;51.888;5.408;2023-05-17T01:11:38;102329.56;;;9.63;100.00
30338;BME280;17143;51.888;5.408;2023-05-17T01:26:46;102322.00;;;9.56;100.00
30338;BME280;17143;51.888;5.408;2023-05-17T01:41:55;102312.69;;;9.48;100.00
30338;BME280;17143;51.888;5.408;2023-05-17T01:56:58;102315.16;;;9.46;100.00
30338;BME280;17143;51.888;5.408;2023-05-17T02:12:01;102312.13;;;9.62;100.00
30338;BME280;17143;51.888;5.408;2023-05-17T02:27:04;102310.38;;;9.72;100.00
30338;BME280;17143;51.888;5.408;2023-05-17T02:42:07;102317.56;;;9.65;100.00
30338;BME280;17143;51.888;5.408;2023-05-17T02:57:09;102329.44;;;9.51;100.00
30338;BME280;17143;51.888;5.408;2023-05-17T03:12:11;102340.41;;;9.37;100.00
30338;BME280;17143;51.888;5.408;2023-05-17T03:27:14;102359.28;;;9.25;100.00
30338;BME280;17143;51.888;5.408;2023-05-17T03:42:16;102376.19;;;9.19;100.00
30338;BME280;17143;51.888;5.408;2023-05-17T03:57:19;102386.59;;;9.19;100.00
30338;BME280;17143;51.888;5.408;2023-05-17T04:12:22;102413.91;;;9.25;100.00
30338;BME280;17143;51.888;5.408;2023-05-17T04:27:24;102421.13;;;9.59;100.00
30338;BME280;17143;51.888;5.408;2023-05-17T04:42:26;102439.84;;;9.75;100.00
30338;BME280;17143;51.888;5.408;2023-05-17T04:57:32;102450.91;;;12.85;100.00
30338;BME280;17143;51.888;5.408;2023-05-17T05:12:38;102463.88;;;16.80;97.26
30338;BME280;17143;51.888;5.408;2023-05-17T05:27:40;102488.28;;;18.26;86.28
30338;BME280;17143;51.888;5.408;2023-05-17T05:42:43;102497.97;;;18.80;76.61
30338;BME280;17143;51.888;5.408;2023-05-17T05:57:45;102525.66;;;18.70;66.50
30338;BME280;17143;51.888;5.408;2023-05-17T06:12:47;102529.19;;;18.89;64.36
30338;BME280;17143;51.888;5.408;2023-05-17T06:27:49;102538.19;;;19.48;61.22
30338;BME280;17143;51.888;5.408;2023-05-17T06:42:51;102555.69;;;19.46;58.20
30338;BME280;17143;51.888;5.408;2023-05-17T06:57:53;102561.63;;;19.40;56.94
30338;BME280;17143;51.888;5.408;2023-05-17T07:12:55;102571.75;;;18.95;51.97
30338;BME280;17143;51.888;5.408;2023-05-17T07:27:57;102590.31;;;18.27;51.60
30338;BME280;17143;51.888;5.408;2023-05-17T07:43:00;102595.03;;;17.99;53.42
30338;BME280;17143;51.888;5.408;2023-05-17T07:58:02;102606.50;;;19.04;47.06
30338;BME280;17143;51.888;5.408;2023-05-17T08:13:04;102622.72;;;17.75;51.64
30338;BME280;17143;51.888;5.408;2023-05-17T08:28:07;102615.44;;;18.53;52.56
30338;BME280;17143;51.888;5.408;2023-05-17T08:43:10;102618.88;;;19.78;45.86
30338;BME280;17143;51.888;5.408;2023-05-17T08:58:14;102624.16;;;19.97;44.64
30338;BME280;17143;51.888;5.408;2023-05-17T09:13:17;102636.84;;;19.29;43.77
30338;BME280;17143;51.888;5.408;2023-05-17T09:28:19;102643.53;;;19.77;43.85
30338;BME280;17143;51.888;5.408;2023-05-17T09:43:23;102643.31;;;19.92;44.03
30338;BME280;17143;51.888;5.408;2023-05-17T09:58:26;102632.25;;;20.00;41.39
30338;BME280;17143;51.888;5.408;2023-05-17T10:13:32;102649.47;;;19.54;41.28
30338;BME280;17143;51.888;5.408;2023-05-17T10:28:36;102633.91;;;19.98;41.39
30338;BME280;17143;51.888;5.408;2023-05-17T10:43:40;102637.44;;;20.37;41.39
30338;BME280;17143;51.888;5.408;2023-05-17T10:58:43;102639.97;;;19.96;41.83
30338;BME280;17143;51.888;5.408;2023-05-17T11:13:49;102628.88;;;20.04;41.37
30338;BME280;17143;51.888;5.408;2023-05-17T11:28:59;102630.50;;;19.82;40.25
30338;BME280;17143;51.888;5.408;2023-05-17T11:44:02;102639.63;;;19.69;41.60
30338;BME280;17143;51.888;5.408;2023-05-17T11:59:04;102632.88;;;19.76;41.44
30338;BME280;17143;51.888;5.408;2023-05-17T12:14:06;102634.75;;;19.40;39.64
30338;BME280;17143;51.888;5.408;2023-05-17T12:29:09;102619.88;;;19.61;39.66
30338;BME280;17143;51.888;5.408;2023-05-17T12:44:11;102621.66;;;19.81;39.37
30338;BME280;17143;51.888;5.408;2023-05-17T12:59:14;102632.66;;;19.52;38.50
30338;BME280;17143;51.888;5.408;2023-05-17T13:14:32;102607.91;;;19.69;39.74
30338;BME280;17143;51.888;5.408;2023-05-17T13:29:36;102619.22;;;19.11;38.41
30338;BME280;17143;51.888;5.408;2023-05-17T14:00:33;102604.88;;;19.06;37.15
30338;BME280;17143;51.888;5.408;2023-05-17T14:15:35;102597.81;;;19.24;36.88
30338;BME280;17143;51.888;5.408;2023-05-17T14:30:37;102601.94;;;19.36;38.47
30338;BME280;17143;51.888;5.408;2023-05-17T14:45:40;102602.38;;;19.28;38.26
30338;BME280;17143;51.888;5.408;2023-05-17T15:00:42;102604.59;;;18.82;39.04
30338;BME280;17143;51.888;5.408;2023-05-17T15:15:44;102607.59;;;18.90;36.93
30338;BME280;17143;51.888;5.408;2023-05-17T15:30:46;102611.75;;;18.49;39.12
30338;BME280;17143;51.888;5.408;2023-05-17T15:45:48;102597.03;;;18.54;39.01
30338;BME280;17143;51.888;5.408;2023-05-17T16:00:50;102608.78;;;17.93;40.59
30338;BME280;17143;51.888;5.408;2023-05-17T16:15:53;102603.47;;;17.76;40.72
30338;BME280;17143;51.888;5.408;2023-05-17T16:30:55;102594.81;;;17.62;42.24
30338;BME280;17143;51.888;5.408;2023-05-17T16:45:57;102591.16;;;17.44;44.45
30338;BME280;17143;51.888;5.408;2023-05-17T17:00:59;102597.75;;;17.05;45.18
30338;BME280;17143;51.888;5.408;2023-05-17T17:16:01;102613.31;;;16.55;47.74
30338;BME280;17143;51.888;5.408;2023-05-17T17:31:03;102609.31;;;16.32;49.09
30338;BME280;17143;51.888;5.408;2023-05-17T17:46:05;102613.19;;;15.95;50.31
30338;BME280;17143;51.888;5.408;2023-05-17T18:01:07;102610.88;;;15.72;51.02
30338;BME280;17143;51.888;5.408;2023-05-17T18:16:09;102618.66;;;15.43;54.06
30338;BME280;17143;51.888;5.408;2023-05-17T18:31:11;102629.59;;;15.09;54.91
30338;BME280;17143;51.888;5.408;2023-05-17T18:46:13;102637.31;;;14.67;56.98
30338;BME280;17143;51.888;5.408;2023-05-17T19:01:15;102633.66;;;14.39;59.72
30338;BME280;17143;51.888;5.408;2023-05-17T19:16:17;102647.44;;;13.98;62.40
30338;BME280;17143;51.888;5.408;2023-05-17T19:31:20;102652.75;;;13.62;63.69
30338;BME280;17143;51.888;5.408;2023-05-17T19:46:22;102673.91;;;13.29;64.60
30338;BME280;17143;51.888;5.408;2023-05-17T20:01:24;102667.63;;;12.92;65.37
30338;BME280;17143;51.888;5.408;2023-05-17T20:16:26;102658.09;;;12.69;66.53
30338;BME280;17143;51.888;5.408;2023-05-17T20:31:28;102664.00;;;12.44;68.01
30338;BME280;17143;51.888;5.408;2023-05-17T20:46:30;102657.34;;;12.14;69.15
30338;BME280;17143;51.888;5.408;2023-05-17T21:01:32;102658.69;;;11.76;71.67
30338;BME280;17143;51.888;5.408;2023-05-17T21:16:34;102676.31;;;11.46;72.19
30338;BME280;17143;51.888;5.408;2023-05-17T21:31:36;102684.09;;;11.35;73.18
30338;BME280;17143;51.888;5.408;2023-05-17T21:46:38;102685.66;;;11.11;72.80
30338;BME280;17143;51.888;5.408;2023-05-17T22:01:40;102680.94;;;10.85;73.57
30338;BME280;17143;51.888;5.408;2023-05-17T22:16:42;102675.75;;;10.65;74.20
30338;BME280;17143;51.888;5.408;2023-05-17T22:31:44;102684.53;;;10.46;74.61
30338;BME280;17143;51.888;5.408;2023-05-17T22:46:46;102684.28;;;10.22;74.66
30338;BME280;17143;51.888;5.408;2023-05-17T23:01:48;102698.19;;;10.03;75.66
30338;BME280;17143;51.888;5.408;2023-05-17T23:16:50;102700.63;;;9.81;76.40
30338;BME280;17143;51.888;5.408;2023-05-17T23:31:52;102710.75;;;9.68;76.39
30338;BME280;17143;51.888;5.408;2023-05-17T23:46:55;102700.03;;;9.45;78.03
